Hoek Van Holland, Netherlands
Current Conditions -  °F | °C
As of 3:55 PM on Thursday 23 Oct 2014 (Local Time) from EHRD Reporting Station
Overcast Overcast  
Wind Chill: 57°   Ceiling: 3600
Heat Index: 57°   Visibility: 6mi
Dew Point: 50°   Wind: 15mph
Humidity: 77%   Direction: 210°SSW
Pressure: 30.12"   Gusts: NA
Location:  51.98°N, 4.13°E
Report Text: EHRD 231355Z AUTO 21013KT 180V240 9999 FEW020 SCT029 OVC03614/10 Q1020 NOSIG
Loading
Personal Weather Stations






























Interactive Weather Map
Tropical Storm Tracking
New forecast layout! Learn more

10-Day Weather Forecast

Advertisements
Track Severe Weather on mobile